Time;durP1;ratioP1;P1;durP2;ratioP2;P2;SDS_P1;SDS_P2;PMS_P1;PMS_P2;Temp;Humidity;BMP_temperature;BMP_pressure;BME280_temperature;BME280_humidity;BME280_pressure;Samples;Min_cycle;Max_cycle;Signal;HPM_P1;HPM_P2
2021/11/15 00:01:31;;;;;;;;;;;16.50;99.90;;;;;;4999890;28;926;-60
2021/11/15 00:03:57;;;;;;;;;;;16.40;99.90;;;;;;5016720;28;1907;-57
2021/11/15 00:06:23;;;;;;;;;;;16.30;99.90;;;;;;5017080;28;855;-60
2021/11/15 00:08:49;;;;;;;;;;;16.30;99.90;;;;;;5017075;28;786;-60
2021/11/15 00:11:15;;;;;;;;;;;16.30;99.90;;;;;;5018062;28;837;-57
2021/11/15 00:13:41;;;;;;;;;;;16.20;99.90;;;;;;5020748;28;886;-60
2021/11/15 00:16:07;;;;;;;;;;;16.20;99.90;;;;;;5020706;28;1383;-60
2021/11/15 00:18:33;;;;;;;;;;;16.20;99.90;;;;;;5020381;28;947;-59
2021/11/15 00:20:59;;;;;;;;;;;16.20;99.90;;;;;;5020170;28;898;-59
2021/11/15 00:23:26;;;;;;;;;;;16.10;99.90;;;;;;5035265;28;1910;-57
2021/11/15 00:25:52;;;;;;;;;;;16.20;99.90;;;;;;5039058;28;845;-58
2021/11/15 00:28:18;;;;;;;;;;;16.10;99.90;;;;;;5013569;28;975;-57
2021/11/15 00:30:44;;;;;;;;;;;16.10;99.90;;;;;;5038994;28;851;-57
2021/11/15 00:33:12;;;;;;;;;;;16.00;99.90;;;;;;5038859;28;907;-60
2021/11/15 00:35:38;;;;;;;;;;;16.00;99.90;;;;;;5038676;28;1293;-57
2021/11/15 00:38:04;;;;;;;;;;;16.00;99.90;;;;;;5038743;28;809;-60
2021/11/15 00:40:30;;;;;;;;;;;16.00;99.90;;;;;;5034448;28;1256;-60
2021/11/15 00:42:57;;;;;;;;;;;15.90;99.90;;;;;;5021989;28;1975;-57
2021/11/15 00:45:23;;;;;;;;;;;15.90;99.90;;;;;;5020340;28;867;-57
2021/11/15 00:47:49;;;;;;;;;;;15.90;99.90;;;;;;5020260;28;817;-60
2021/11/15 00:50:17;;;;;;;;;;;15.90;99.90;;;;;;5019322;28;1012;-57
2021/11/15 00:52:44;;;;;;;;;;;15.80;99.90;;;;;;5012276;28;1066;-57
2021/11/15 00:55:10;;;;;;;;;;;15.90;99.90;;;;;;5020687;28;910;-59
2021/11/15 00:57:36;;;;;;;;;;;15.80;99.90;;;;;;5038290;28;846;-59
2021/11/15 01:00:04;;;;;;;;;;;15.80;99.90;;;;;;5038547;28;983;-57
2021/11/15 01:02:30;;;;;;;;;;;15.80;99.90;;;;;;5038166;28;1906;-60
2021/11/15 01:04:56;;;;;;;;;;;15.80;99.90;;;;;;5020935;28;922;-57
2021/11/15 01:07:22;;;;;;;;;;;15.70;99.90;;;;;;5003966;28;913;-60
2021/11/15 01:09:48;;;;;;;;;;;15.70;99.90;;;;;;5038160;28;754;-60
2021/11/15 01:12:14;;;;;;;;;;;15.70;99.90;;;;;;5038422;28;935;-60
2021/11/15 01:14:41;;;;;;;;;;;15.70;99.90;;;;;;5038435;28;911;-60
2021/11/15 01:17:07;;;;;;;;;;;15.60;99.90;;;;;;5037973;28;1163;-60
2021/11/15 01:19:33;;;;;;;;;;;15.60;99.90;;;;;;5037323;28;1334;-60
2021/11/15 01:21:59;;;;;;;;;;;15.60;99.90;;;;;;5034340;28;1914;-57
2021/11/15 01:24:25;;;;;;;;;;;15.60;99.90;;;;;;5019148;28;835;-57
2021/11/15 01:26:51;;;;;;;;;;;15.60;99.90;;;;;;5019474;28;871;-57
2021/11/15 01:29:17;;;;;;;;;;;15.60;99.90;;;;;;5019642;28;838;-57
2021/11/15 01:31:43;;;;;;;;;;;15.50;99.90;;;;;;5019572;28;1028;-57
2021/11/15 01:34:09;;;;;;;;;;;15.50;99.90;;;;;;5002442;28;905;-57
2021/11/15 01:36:35;;;;;;;;;;;15.50;99.90;;;;;;5021566;28;1198;-57
2021/11/15 01:39:02;;;;;;;;;;;15.50;99.90;;;;;;5019710;28;964;-57
2021/11/15 01:41:29;;;;;;;;;;;15.50;99.90;;;;;;5007407;28;1230;-59
2021/11/15 01:43:55;;;;;;;;;;;15.50;99.90;;;;;;5025721;28;1965;-57
2021/11/15 01:46:21;;;;;;;;;;;15.40;99.90;;;;;;5002077;28;754;-57
2021/11/15 01:48:47;;;;;;;;;;;15.40;99.90;;;;;;5001765;28;1590;-58
2021/11/15 01:51:13;;;;;;;;;;;15.40;99.90;;;;;;5019299;28;787;-59
2021/11/15 01:53:39;;;;;;;;;;;15.40;99.90;;;;;;5034952;28;857;-57
2021/11/15 01:56:05;;;;;;;;;;;15.40;99.90;;;;;;5037415;28;862;-57
2021/11/15 01:58:31;;;;;;;;;;;15.40;99.90;;;;;;5019535;28;1461;-58
2021/11/15 02:00:58;;;;;;;;;;;15.40;99.90;;;;;;5037091;28;904;-57
2021/11/15 02:03:25;;;;;;;;;;;15.40;99.90;;;;;;5036437;28;1914;-58
2021/11/15 02:05:51;;;;;;;;;;;15.30;99.90;;;;;;5036654;28;858;-60
2021/11/15 02:08:18;;;;;;;;;;;15.30;99.90;;;;;;5036934;28;903;-57
2021/11/15 02:10:45;;;;;;;;;;;15.30;99.90;;;;;;5036567;28;908;-60
2021/11/15 02:13:15;;;;;;;;;;;15.30;99.90;;;;;;5036266;28;850;-60
2021/11/15 02:15:41;;;;;;;;;;;15.30;99.90;;;;;;5036128;28;1375;-60
2021/11/15 02:18:07;;;;;;;;;;;15.30;99.90;;;;;;5009087;28;967;-60
2021/11/15 02:20:48;;;;;;;;;;;15.30;99.90;;;;;;5018574;28;870;-60
2021/11/15 02:23:15;;;;;;;;;;;15.20;99.90;;;;;;5031152;28;1909;-60
2021/11/15 02:25:41;;;;;;;;;;;15.20;99.90;;;;;;5036658;28;970;-57
2021/11/15 02:28:07;;;;;;;;;;;15.20;99.90;;;;;;5036649;28;852;-57
2021/11/15 02:30:33;;;;;;;;;;;15.20;99.90;;;;;;5036556;28;865;-57
2021/11/15 02:33:01;;;;;;;;;;;15.20;99.90;;;;;;5036574;28;881;-57
2021/11/15 02:35:27;;;;;;;;;;;15.20;99.90;;;;;;5018684;28;1133;-60
2021/11/15 02:37:54;;;;;;;;;;;15.20;99.90;;;;;;5036671;28;834;-58
2021/11/15 02:40:21;;;;;;;;;;;15.10;99.90;;;;;;5018972;28;913;-60
2021/11/15 02:42:48;;;;;;;;;;;15.10;99.90;;;;;;5036553;28;1902;-58
2021/11/15 02:45:15;;;;;;;;;;;15.10;99.90;;;;;;5036562;28;861;-58
2021/11/15 02:47:41;;;;;;;;;;;15.10;99.90;;;;;;5018626;28;904;-60
2021/11/15 02:50:10;;;;;;;;;;;15.10;99.90;;;;;;5034484;28;1064;-58
2021/11/15 02:52:40;;;;;;;;;;;15.10;99.90;;;;;;5026283;28;882;-57
2021/11/15 02:55:08;;;;;;;;;;;15.10;99.90;;;;;;5036052;28;860;-60
2021/11/15 02:57:34;;;;;;;;;;;15.10;99.90;;;;;;5035601;28;1000;-60
2021/11/15 03:00:03;;;;;;;;;;;15.00;99.90;;;;;;5036037;28;762;-60
2021/11/15 03:02:29;;;;;;;;;;;15.00;99.90;;;;;;5035918;28;1954;-60
2021/11/15 03:04:55;;;;;;;;;;;15.00;99.90;;;;;;5035218;28;845;-57
2021/11/15 03:07:21;;;;;;;;;;;15.00;99.90;;;;;;5035937;28;884;-60
2021/11/15 03:09:47;;;;;;;;;;;15.00;99.90;;;;;;5035870;28;846;-60
2021/11/15 03:12:19;;;;;;;;;;;15.00;99.90;;;;;;5035861;28;848;-59
2021/11/15 03:14:46;;;;;;;;;;;14.90;99.90;;;;;;5035874;28;833;-57
2021/11/15 03:17:12;;;;;;;;;;;15.00;99.90;;;;;;5014590;28;1114;-60
2021/11/15 03:19:38;;;;;;;;;;;14.90;99.90;;;;;;5015814;28;852;-60
2021/11/15 03:22:04;;;;;;;;;;;14.90;99.90;;;;;;5014759;28;936;-59
2021/11/15 03:24:31;;;;;;;;;;;14.90;99.90;;;;;;5015271;28;1976;-58
2021/11/15 03:26:58;;;;;;;;;;;14.90;99.90;;;;;;5015077;28;931;-57
2021/11/15 03:29:24;;;;;;;;;;;14.90;99.90;;;;;;5016025;28;816;-57
2021/11/15 03:31:50;;;;;;;;;;;14.90;99.90;;;;;;5016434;28;767;-57
2021/11/15 03:34:16;;;;;;;;;;;14.80;99.90;;;;;;5014571;28;1159;-57
2021/11/15 03:36:43;;;;;;;;;;;14.80;99.90;;;;;;5015707;28;811;-57
2021/11/15 03:39:10;;;;;;;;;;;14.80;99.90;;;;;;5011272;28;1254;-59
2021/11/15 03:41:37;;;;;;;;;;;14.80;99.90;;;;;;4998062;28;1135;-57
2021/11/15 03:44:04;;;;;;;;;;;14.80;99.90;;;;;;4996520;28;1902;-57
2021/11/15 03:46:32;;;;;;;;;;;14.80;99.90;;;;;;4997355;28;820;-57
2021/11/15 03:48:58;;;;;;;;;;;14.80;99.90;;;;;;4997511;28;1203;-57
2021/11/15 03:51:24;;;;;;;;;;;14.80;99.90;;;;;;4997285;28;904;-58
2021/11/15 03:53:51;;;;;;;;;;;14.70;99.90;;;;;;5014667;28;970;-55
2021/11/15 03:56:23;;;;;;;;;;;14.70;99.90;;;;;;5015185;28;897;-57
2021/11/15 03:58:49;;;;;;;;;;;14.70;99.90;;;;;;5015357;28;786;-58
2021/11/15 04:01:15;;;;;;;;;;;14.70;99.90;;;;;;5015379;28;845;-57
2021/11/15 04:03:43;;;;;;;;;;;14.70;99.90;;;;;;5015505;28;1964;-57
2021/11/15 04:06:13;;;;;;;;;;;14.70;99.90;;;;;;5015261;28;846;-57
2021/11/15 04:08:39;;;;;;;;;;;14.70;99.90;;;;;;5015529;28;853;-57
2021/11/15 04:11:07;;;;;;;;;;;14.70;99.90;;;;;;5010024;28;786;-58
2021/11/15 04:13:34;;;;;;;;;;;14.60;99.90;;;;;;4997113;28;930;-58
2021/11/15 04:16:03;;;;;;;;;;;14.60;99.90;;;;;;5004910;28;1338;-58
2021/11/15 04:18:31;;;;;;;;;;;14.60;99.90;;;;;;5013412;28;869;-58
2021/11/15 04:20:57;;;;;;;;;;;14.60;99.90;;;;;;5016611;28;941;-58
2021/11/15 04:23:24;;;;;;;;;;;14.60;99.90;;;;;;5034987;28;1979;-57
2021/11/15 04:25:50;;;;;;;;;;;14.60;99.90;;;;;;5035106;28;914;-57
2021/11/15 04:28:16;;;;;;;;;;;14.60;99.90;;;;;;5017206;28;902;-57
2021/11/15 04:30:42;;;;;;;;;;;14.60;99.90;;;;;;5034852;28;845;-57
2021/11/15 04:33:08;;;;;;;;;;;14.60;99.90;;;;;;5034753;28;797;-59
2021/11/15 04:35:34;;;;;;;;;;;14.60;99.90;;;;;;5034301;28;853;-59
2021/11/15 04:38:02;;;;;;;;;;;14.60;99.90;;;;;;5034369;28;893;-59
2021/11/15 04:40:28;;;;;;;;;;;14.60;99.90;;;;;;5034195;28;982;-57
2021/11/15 04:42:54;;;;;;;;;;;14.50;99.90;;;;;;5033967;28;1906;-57
2021/11/15 04:45:20;;;;;;;;;;;14.50;99.90;;;;;;5034611;28;814;-57
2021/11/15 04:47:47;;;;;;;;;;;14.50;99.90;;;;;;5017389;28;905;-58
2021/11/15 04:50:14;;;;;;;;;;;14.50;99.90;;;;;;5034253;28;871;-59
2021/11/15 04:52:40;;;;;;;;;;;14.50;99.90;;;;;;5035012;28;903;-59
2021/11/15 04:55:08;;;;;;;;;;;14.50;99.90;;;;;;5034536;28;759;-57
2021/11/15 04:57:34;;;;;;;;;;;14.50;99.90;;;;;;5017228;28;910;-59
2021/11/15 05:00:01;;;;;;;;;;;14.50;99.90;;;;;;5020834;28;1052;-59
2021/11/15 05:02:27;;;;;;;;;;;14.50;99.90;;;;;;5038217;28;1955;-59
2021/11/15 05:04:54;;;;;;;;;;;14.50;99.90;;;;;;5038039;28;750;-58
2021/11/15 05:07:20;;;;;;;;;;;14.50;99.90;;;;;;5038100;28;829;-57
2021/11/15 05:09:46;;;;;;;;;;;14.40;99.90;;;;;;5020164;28;811;-58
2021/11/15 05:12:12;;;;;;;;;;;14.40;99.90;;;;;;5037807;28;900;-59
2021/11/15 05:14:38;;;;;;;;;;;14.50;99.90;;;;;;5037990;28;944;-59
2021/11/15 05:17:04;;;;;;;;;;;14.40;99.90;;;;;;5037733;28;1259;-57
2021/11/15 05:19:30;;;;;;;;;;;14.40;99.90;;;;;;5037646;28;1114;-57
2021/11/15 05:21:56;;;;;;;;;;;14.40;99.90;;;;;;5037267;28;887;-57
2021/11/15 05:24:22;;;;;;;;;;;14.40;99.90;;;;;;5037798;28;1922;-57
2021/11/15 05:26:48;;;;;;;;;;;14.40;99.90;;;;;;5037656;28;1064;-59
2021/11/15 05:29:14;;;;;;;;;;;14.40;99.90;;;;;;5037880;28;888;-59
2021/11/15 05:31:40;;;;;;;;;;;14.40;99.90;;;;;;5037651;28;806;-59
2021/11/15 05:34:06;;;;;;;;;;;14.40;99.90;;;;;;5029372;28;1326;-57
2021/11/15 05:36:32;;;;;;;;;;;14.40;99.90;;;;;;5019304;28;837;-57
2021/11/15 05:38:59;;;;;;;;;;;14.40;99.90;;;;;;5019473;28;866;-59
2021/11/15 05:41:25;;;;;;;;;;;14.40;99.90;;;;;;5019249;28;1128;-57
2021/11/15 05:43:51;;;;;;;;;;;14.30;99.90;;;;;;5019081;28;1910;-57
2021/11/15 05:46:17;;;;;;;;;;;14.40;99.90;;;;;;5019192;28;1001;-57
2021/11/15 05:48:43;;;;;;;;;;;14.40;99.90;;;;;;5019519;28;809;-59
2021/11/15 05:51:09;;;;;;;;;;;14.30;99.90;;;;;;5020837;28;1193;-59
2021/11/15 05:53:36;;;;;;;;;;;14.30;99.90;;;;;;5025042;28;778;-59
2021/11/15 05:56:07;;;;;;;;;;;14.30;99.90;;;;;;5018388;28;1183;-58
2021/11/15 05:58:33;;;;;;;;;;;14.30;99.90;;;;;;5019080;28;858;-57
2021/11/15 06:00:59;;;;;;;;;;;14.30;99.90;;;;;;5018666;28;883;-57
2021/11/15 06:03:27;;;;;;;;;;;14.30;99.90;;;;;;5018493;28;1977;-57
2021/11/15 06:05:53;;;;;;;;;;;14.40;99.90;;;;;;5018280;28;867;-57
2021/11/15 06:08:19;;;;;;;;;;;14.40;99.90;;;;;;5018816;28;825;-57
2021/11/15 06:10:46;;;;;;;;;;;14.40;99.90;;;;;;5018450;28;1031;-57
2021/11/15 06:13:12;;;;;;;;;;;14.40;99.90;;;;;;5018740;28;833;-58
2021/11/15 06:15:38;;;;;;;;;;;14.50;99.90;;;;;;5018455;28;1256;-59
2021/11/15 06:18:04;;;;;;;;;;;14.50;99.90;;;;;;5018564;28;821;-58
2021/11/15 06:20:30;;;;;;;;;;;14.60;99.90;;;;;;5017834;28;936;-60
2021/11/15 06:22:56;;;;;;;;;;;14.60;99.90;;;;;;5028190;28;1910;-58
2021/11/15 06:25:23;;;;;;;;;;;14.60;99.90;;;;;;5036277;28;1144;-59
2021/11/15 06:27:49;;;;;;;;;;;14.60;99.90;;;;;;5036584;28;919;-57
2021/11/15 06:30:16;;;;;;;;;;;14.60;99.90;;;;;;5006261;28;1155;-60
2021/11/15 06:32:42;;;;;;;;;;;14.70;99.90;;;;;;5017762;28;811;-58
2021/11/15 06:35:09;;;;;;;;;;;14.70;99.90;;;;;;5018026;28;1039;-58
2021/11/15 06:37:36;;;;;;;;;;;14.70;99.90;;;;;;5018116;28;997;-60
2021/11/15 06:40:04;;;;;;;;;;;14.70;99.90;;;;;;5017974;28;1154;-58
2021/11/15 06:42:30;;;;;;;;;;;14.70;99.90;;;;;;5015238;28;869;-60
2021/11/15 06:44:56;;;;;;;;;;;14.70;99.90;;;;;;5036341;28;1906;-60
2021/11/15 06:47:22;;;;;;;;;;;14.70;99.90;;;;;;5036479;28;986;-59
2021/11/15 06:49:53;;;;;;;;;;;14.70;99.90;;;;;;5035992;28;909;-58
2021/11/15 06:52:19;;;;;;;;;;;14.70;99.90;;;;;;5036397;28;785;-59
2021/11/15 06:54:46;;;;;;;;;;;14.60;99.90;;;;;;5036410;28;904;-58
2021/11/15 06:57:12;;;;;;;;;;;14.70;99.90;;;;;;5036194;28;926;-59
2021/11/15 06:59:38;;;;;;;;;;;14.60;99.90;;;;;;5036206;28;767;-59
2021/11/15 07:02:04;;;;;;;;;;;14.60;99.90;;;;;;5036002;28;829;-58
2021/11/15 07:04:30;;;;;;;;;;;14.60;99.90;;;;;;5018353;28;1903;-58
2021/11/15 07:06:56;;;;;;;;;;;14.60;99.90;;;;;;5034996;28;990;-58
2021/11/15 07:09:22;;;;;;;;;;;14.60;99.90;;;;;;5018018;28;909;-58
2021/11/15 07:11:50;;;;;;;;;;;14.70;99.90;;;;;;5017376;28;804;-60
2021/11/15 07:14:17;;;;;;;;;;;14.80;99.90;;;;;;5017347;28;975;-60
2021/11/15 07:16:43;;;;;;;;;;;15.00;99.90;;;;;;5016824;28;960;-58
2021/11/15 07:19:09;;;;;;;;;;;15.10;99.90;;;;;;5017717;28;776;-58
2021/11/15 07:21:35;;;;;;;;;;;15.10;99.90;;;;;;4999925;28;1144;-58
2021/11/15 07:26:28;;;;;;;;;;;15.30;99.90;;;;;;5075477;22;1796;-57
2021/11/15 07:28:54;;;;;;;;;;;15.30;99.90;;;;;;5075790;28;917;-57
2021/11/15 07:31:20;;;;;;;;;;;15.40;99.90;;;;;;5058111;28;862;-57
2021/11/15 07:33:46;;;;;;;;;;;15.40;99.90;;;;;;5073343;28;1324;-57
2021/11/15 07:36:12;;;;;;;;;;;15.50;99.90;;;;;;5075606;28;850;-57
2021/11/15 07:38:38;;;;;;;;;;;15.60;99.90;;;;;;5075759;28;1299;-57
2021/11/15 07:41:05;;;;;;;;;;;15.70;99.90;;;;;;5076060;28;798;-57
2021/11/15 07:43:31;;;;;;;;;;;15.70;99.90;;;;;;5076221;28;1961;-59
2021/11/15 07:45:58;;;;;;;;;;;15.80;99.90;;;;;;5075982;28;881;-59
2021/11/15 07:48:25;;;;;;;;;;;15.80;99.90;;;;;;5076002;28;841;-57
2021/11/15 07:50:51;;;;;;;;;;;15.90;99.90;;;;;;5075960;28;837;-57
2021/11/15 07:53:17;;;;;;;;;;;15.90;99.90;;;;;;5075356;28;1019;-59
2021/11/15 07:55:43;;;;;;;;;;;15.90;99.90;;;;;;5075484;28;798;-59
2021/11/15 07:58:11;;;;;;;;;;;15.90;99.90;;;;;;5075498;28;1052;-59
2021/11/15 08:00:38;;;;;;;;;;;16.00;99.90;;;;;;5058078;28;826;-59
2021/11/15 08:03:05;;;;;;;;;;;16.00;99.90;;;;;;5075418;28;1902;-59
2021/11/15 08:05:31;;;;;;;;;;;16.00;99.90;;;;;;5075794;28;817;-59
2021/11/15 08:07:57;;;;;;;;;;;16.10;99.90;;;;;;5075781;28;961;-58
2021/11/15 08:10:24;;;;;;;;;;;16.10;99.90;;;;;;5075724;28;1047;-57
2021/11/15 08:12:53;;;;;;;;;;;16.10;99.90;;;;;;5075748;28;859;-57
2021/11/15 08:15:21;;;;;;;;;;;16.10;99.90;;;;;;5074967;28;869;-59
2021/11/15 08:17:48;;;;;;;;;;;16.10;99.90;;;;;;5075157;28;838;-59
2021/11/15 08:20:17;;;;;;;;;;;16.20;99.90;;;;;;5075478;28;895;-59
2021/11/15 08:22:47;;;;;;;;;;;16.20;99.90;;;;;;5075680;28;941;-57
2021/11/15 08:25:50;;;;;;;;;;;16.20;99.90;;;;;;5075038;28;1906;-57
2021/11/15 08:28:16;;;;;;;;;;;16.20;99.90;;;;;;5074777;28;1880;-57
2021/11/15 08:30:42;;;;;;;;;;;16.30;99.90;;;;;;5075610;28;887;-57
2021/11/15 08:33:09;;;;;;;;;;;16.30;99.90;;;;;;5077936;28;904;-59
2021/11/15 08:35:35;;;;;;;;;;;16.30;99.90;;;;;;5079434;28;838;-59
2021/11/15 08:38:18;;;;;;;;;;;16.30;99.90;;;;;;5079464;28;868;-59
2021/11/15 08:40:48;;;;;;;;;;;16.40;99.90;;;;;;5078771;28;915;-59
2021/11/15 08:43:15;;;;;;;;;;;16.40;99.90;;;;;;5044650;28;1906;-59
2021/11/15 08:45:41;;;;;;;;;;;16.50;99.90;;;;;;5079643;28;767;-59
2021/11/15 08:48:07;;;;;;;;;;;16.50;99.90;;;;;;5076826;28;1162;-59
2021/11/15 08:50:33;;;;;;;;;;;16.50;99.90;;;;;;5079288;28;836;-57
2021/11/15 08:52:59;;;;;;;;;;;16.50;99.90;;;;;;5079286;28;848;-59
2021/11/15 08:55:26;;;;;;;;;;;16.60;99.90;;;;;;5060679;28;1000;-59
2021/11/15 08:57:53;;;;;;;;;;;16.60;99.90;;;;;;5061282;28;1140;-57
2021/11/15 09:00:19;;;;;;;;;;;16.60;99.90;;;;;;5076928;28;1070;-59
2021/11/15 09:02:45;;;;;;;;;;;16.60;99.90;;;;;;5079206;28;841;-59
2021/11/15 09:05:13;;;;;;;;;;;16.70;99.90;;;;;;5078884;28;1906;-57
2021/11/15 09:07:40;;;;;;;;;;;16.70;99.90;;;;;;5078899;28;849;-57
2021/11/15 09:10:10;;;;;;;;;;;16.70;99.90;;;;;;5075340;28;1015;-57
2021/11/15 09:12:37;;;;;;;;;;;16.70;99.90;;;;;;5027100;28;1020;-57
2021/11/15 09:15:04;;;;;;;;;;;16.70;99.90;;;;;;5078181;28;1557;-59
2021/11/15 09:17:30;;;;;;;;;;;16.70;99.90;;;;;;5011010;28;1088;-57
2021/11/15 09:19:56;;;;;;;;;;;16.80;99.90;;;;;;5078757;28;884;-57
2021/11/15 09:22:23;;;;;;;;;;;16.80;99.90;;;;;;5078260;28;908;-59
2021/11/15 09:24:50;;;;;;;;;;;16.80;99.90;;;;;;5077942;28;1967;-59
2021/11/15 09:27:17;;;;;;;;;;;16.80;99.90;;;;;;5060783;28;936;-59
2021/11/15 09:29:47;;;;;;;;;;;16.80;99.90;;;;;;5077893;28;1055;-59
2021/11/15 09:32:13;;;;;;;;;;;16.80;99.90;;;;;;5078242;28;1286;-57
2021/11/15 09:34:40;;;;;;;;;;;16.80;99.90;;;;;;5043024;28;1449;-57
2021/11/15 09:37:11;;;;;;;;;;;16.70;99.90;;;;;;5078365;28;921;-57
2021/11/15 09:39:38;;;;;;;;;;;16.70;99.90;;;;;;5077954;28;1156;-57
2021/11/15 09:42:04;;;;;;;;;;;16.60;99.90;;;;;;5078352;28;815;-57
2021/11/15 09:44:30;;;;;;;;;;;16.60;99.90;;;;;;5077521;28;1953;-60
2021/11/15 09:46:56;;;;;;;;;;;16.70;99.90;;;;;;5078519;28;854;-57
2021/11/15 09:49:23;;;;;;;;;;;16.60;99.90;;;;;;5078206;28;916;-57
2021/11/15 09:51:49;;;;;;;;;;;16.70;99.90;;;;;;5078316;28;1127;-57
2021/11/15 09:54:16;;;;;;;;;;;16.70;99.90;;;;;;5078444;28;817;-57
2021/11/15 09:56:43;;;;;;;;;;;16.70;99.90;;;;;;5077390;28;1037;-57
2021/11/15 09:59:13;;;;;;;;;;;16.70;99.90;;;;;;5077107;28;854;-59
2021/11/15 10:01:44;;;;;;;;;;;16.70;99.90;;;;;;5077570;28;1007;-59
2021/11/15 10:04:16;;;;;;;;;;;16.80;99.90;;;;;;5077863;28;1906;-59
2021/11/15 10:06:42;;;;;;;;;;;16.80;99.90;;;;;;5077175;28;876;-59
2021/11/15 10:09:08;;;;;;;;;;;16.80;99.90;;;;;;5078079;28;794;-59
2021/11/15 10:11:41;;;;;;;;;;;16.80;99.90;;;;;;5077500;28;817;-59
2021/11/15 10:14:07;;;;;;;;;;;16.80;99.90;;;;;;5078041;28;942;-57
2021/11/15 10:16:34;;;;;;;;;;;16.80;99.90;;;;;;5059719;28;934;-57
2021/11/15 10:19:01;;;;;;;;;;;16.90;99.90;;;;;;5059307;28;1164;-59
2021/11/15 10:21:30;;;;;;;;;;;16.90;99.90;;;;;;5077234;28;905;-59
2021/11/15 10:24:00;;;;;;;;;;;16.90;99.90;;;;;;5077000;28;1902;-59
2021/11/15 10:26:30;;;;;;;;;;;16.90;99.90;;;;;;5076386;28;1156;-59
2021/11/15 10:28:59;;;;;;;;;;;16.90;99.90;;;;;;5077758;28;947;-59
2021/11/15 10:31:28;;;;;;;;;;;16.90;99.90;;;;;;5074608;28;1020;-56
2021/11/15 10:33:55;;;;;;;;;;;16.90;99.90;;;;;;5077018;28;874;-57
2021/11/15 10:36:41;;;;;;;;;;;16.90;99.90;;;;;;5076250;28;1039;-57
2021/11/15 10:39:08;;;;;;;;;;;16.90;99.90;;;;;;5074073;28;1826;-57
2021/11/15 10:41:34;;;;;;;;;;;16.90;99.90;;;;;;5076439;28;1313;-57
2021/11/15 10:44:01;;;;;;;;;;;17.00;99.90;;;;;;5073094;28;1913;-57
2021/11/15 10:46:39;;;;;;;;;;;17.00;99.90;;;;;;5076348;28;886;-57
2021/11/15 10:49:06;;;;;;;;;;;17.00;99.90;;;;;;5077054;28;845;-57
2021/11/15 10:51:57;;;;;;;;;;;17.00;99.90;;;;;;5059429;28;880;-57
2021/11/15 10:54:33;;;;;;;;;;;17.00;99.90;;;;;;5076851;28;830;-56
2021/11/15 10:57:14;;;;;;;;;;;17.00;99.90;;;;;;5075387;28;846;-56
2021/11/15 10:59:40;;;;;;;;;;;16.70;99.90;;;;;;5076854;28;866;-57
2021/11/15 11:02:27;;;;;;;;;;;16.10;99.90;;;;;;5074776;28;1039;-57
2021/11/15 11:05:16;;;;;;;;;;;16.00;99.90;;;;;;5076617;28;1906;-57
2021/11/15 11:07:44;;;;;;;;;;;16.20;99.90;;;;;;5076779;28;805;-56
2021/11/15 11:10:13;;;;;;;;;;;16.50;99.90;;;;;;5058196;28;1246;-56
2021/11/15 11:12:41;;;;;;;;;;;16.70;99.90;;;;;;5076829;28;854;-56
2021/11/15 11:15:22;;;;;;;;;;;16.90;99.90;;;;;;5076543;28;861;-57
2021/11/15 11:18:06;;;;;;;;;;;17.00;99.90;;;;;;5056961;28;1260;-57
2021/11/15 11:26:21;;;;;;;;;;;17.30;99.90;;;;;;5075772;28;1589;-57
2021/11/15 11:28:50;;;;;;;;;;;17.50;99.90;;;;;;5055842;28;1290;-58
2021/11/15 11:31:17;;;;;;;;;;;17.80;99.90;;;;;;5074572;22;1939;-57
2021/11/15 11:33:44;;;;;;;;;;;17.90;99.90;;;;;;5056060;28;773;-58
2021/11/15 11:36:11;;;;;;;;;;;18.10;99.90;;;;;;5056371;28;849;-59
2021/11/15 11:38:38;;;;;;;;;;;18.10;99.90;;;;;;5056186;28;1517;-57
2021/11/15 11:41:04;;;;;;;;;;;18.10;99.90;;;;;;5056194;28;805;-59
2021/11/15 11:43:30;;;;;;;;;;;18.00;99.90;;;;;;5055980;28;1910;-59
2021/11/15 11:45:56;;;;;;;;;;;18.00;99.90;;;;;;5055768;28;1069;-59
2021/11/15 11:48:24;;;;;;;;;;;18.00;99.90;;;;;;5056327;28;805;-60
2021/11/15 11:50:51;;;;;;;;;;;18.00;99.90;;;;;;5054978;28;992;-59
2021/11/15 11:53:22;;;;;;;;;;;18.00;99.90;;;;;;5055822;28;856;-59
2021/11/15 11:55:49;;;;;;;;;;;18.00;99.90;;;;;;5049048;28;1253;-59
2021/11/15 11:58:23;;;;;;;;;;;18.00;99.90;;;;;;5049069;28;1072;-59
2021/11/15 12:00:55;;;;;;;;;;;18.00;99.90;;;;;;5052662;28;1219;-60
2021/11/15 12:03:23;;;;;;;;;;;18.00;99.90;;;;;;5048937;28;1120;-59
2021/11/15 12:05:50;;;;;;;;;;;18.00;99.90;;;;;;5050145;28;1906;-59
2021/11/15 12:08:16;;;;;;;;;;;18.00;99.90;;;;;;5050614;28;1272;-59
2021/11/15 12:10:58;;;;;;;;;;;17.90;99.90;;;;;;5050892;28;1075;-59
2021/11/15 12:13:25;;;;;;;;;;;17.90;99.90;;;;;;5052389;28;1364;-60
2021/11/15 12:15:59;;;;;;;;;;;17.90;99.90;;;;;;5049732;28;1383;-60
2021/11/15 12:18:27;;;;;;;;;;;17.90;99.90;;;;;;5048466;28;1156;-59
2021/11/15 12:21:03;;;;;;;;;;;17.90;99.90;;;;;;5049162;28;1444;-60
2021/11/15 12:23:30;;;;;;;;;;;17.90;99.90;;;;;;5047105;28;1212;-59
2021/11/15 12:26:06;;;;;;;;;;;17.80;99.90;;;;;;5055155;28;1967;-61
2021/11/15 12:28:32;;;;;;;;;;;17.80;99.90;;;;;;5052749;28;1215;-59
2021/11/15 12:31:02;;;;;;;;;;;17.70;99.90;;;;;;5052624;28;1223;-59
2021/11/15 12:33:33;;;;;;;;;;;17.70;99.90;;;;;;5053965;28;1090;-58
2021/11/15 12:36:04;;;;;;;;;;;17.70;99.90;;;;;;5055759;28;769;-58
2021/11/15 12:38:45;;;;;;;;;;;17.60;99.90;;;;;;5055721;28;815;-58
2021/11/15 12:41:17;;;;;;;;;;;17.50;99.90;;;;;;5055684;28;864;-58
2021/11/15 12:44:04;;;;;;;;;;;17.40;99.90;;;;;;5055250;28;1906;-57
2021/11/15 12:46:40;;;;;;;;;;;17.20;99.90;;;;;;5053207;28;1828;-57
2021/11/15 12:49:15;;;;;;;;;;;17.20;99.90;;;;;;5052360;28;1382;-59
2021/11/15 12:51:41;;;;;;;;;;;17.10;99.90;;;;;;5055694;28;842;-59
2021/11/15 12:54:07;;;;;;;;;;;17.10;99.90;;;;;;5055515;28;817;-59
2021/11/15 12:56:38;;;;;;;;;;;17.10;99.90;;;;;;5054272;28;1059;-59
2021/11/15 12:59:05;;;;;;;;;;;17.10;99.90;;;;;;5053014;28;1155;-59
2021/11/15 13:01:31;;;;;;;;;;;17.10;99.90;;;;;;5058110;28;1221;-59
2021/11/15 13:03:59;;;;;;;;;;;17.10;99.90;;;;;;5052002;28;1902;-57
2021/11/15 13:06:25;;;;;;;;;;;17.10;99.90;;;;;;5053201;28;1851;-57
2021/11/15 13:08:53;;;;;;;;;;;17.10;99.90;;;;;;5050923;28;996;-57
2021/11/15 13:11:20;;;;;;;;;;;17.10;99.90;;;;;;5054559;28;1421;-57
2021/11/15 13:13:47;;;;;;;;;;;17.10;99.90;;;;;;5050649;28;982;-57
2021/11/15 13:16:15;;;;;;;;;;;17.20;99.90;;;;;;5053486;28;1129;-57
2021/11/15 13:18:42;;;;;;;;;;;17.20;99.90;;;;;;5054885;28;1014;-57
2021/11/15 13:21:10;;;;;;;;;;;17.30;99.90;;;;;;5056557;28;1806;-57
2021/11/15 13:23:43;;;;;;;;;;;17.30;99.90;;;;;;5051704;28;1142;-57
2021/11/15 13:26:11;;;;;;;;;;;17.30;99.90;;;;;;5058314;28;1249;-57
2021/11/15 13:28:38;;;;;;;;;;;17.40;99.90;;;;;;5039677;28;976;-57
2021/11/15 13:31:06;;;;;;;;;;;17.40;99.90;;;;;;5049684;28;1073;-57
2021/11/15 13:33:34;;;;;;;;;;;17.40;99.90;;;;;;5054726;28;1027;-57
2021/11/15 13:36:00;;;;;;;;;;;17.50;99.90;;;;;;5056608;28;1136;-58
2021/11/15 13:38:27;;;;;;;;;;;17.40;99.90;;;;;;5058075;28;1037;-59
2021/11/15 13:40:53;;;;;;;;;;;17.20;99.90;;;;;;5058037;28;1068;-58
2021/11/15 13:43:23;;;;;;;;;;;17.10;99.90;;;;;;5057751;28;947;-59
2021/11/15 13:45:50;;;;;;;;;;;17.10;99.90;;;;;;5052227;28;1967;-60
2021/11/15 13:48:16;;;;;;;;;;;17.10;99.90;;;;;;5057680;28;1088;-60
2021/11/15 13:50:44;;;;;;;;;;;17.10;99.90;;;;;;5057615;28;1125;-60
2021/11/15 13:53:10;;;;;;;;;;;17.10;99.90;;;;;;5057682;28;1678;-60
2021/11/15 13:55:36;;;;;;;;;;;17.10;99.90;;;;;;5056282;28;1100;-60
2021/11/15 13:58:02;;;;;;;;;;;17.10;99.90;;;;;;5057529;28;1117;-60
2021/11/15 14:00:29;;;;;;;;;;;17.10;99.90;;;;;;5057630;28;1001;-59
2021/11/15 14:02:55;;;;;;;;;;;17.10;99.90;;;;;;5056952;28;1036;-59
2021/11/15 14:05:22;;;;;;;;;;;17.10;99.90;;;;;;5054664;28;1965;-58
2021/11/15 14:07:49;;;;;;;;;;;17.10;99.90;;;;;;5056634;28;1447;-57
2021/11/15 14:10:15;;;;;;;;;;;17.10;99.90;;;;;;5057297;28;1437;-58
2021/11/15 14:12:42;;;;;;;;;;;17.20;99.90;;;;;;5057501;28;962;-57
2021/11/15 14:15:08;;;;;;;;;;;17.10;99.90;;;;;;5055756;28;1344;-58
2021/11/15 14:17:34;;;;;;;;;;;17.10;99.90;;;;;;5039566;28;1392;-58
2021/11/15 14:20:01;;;;;;;;;;;17.10;99.90;;;;;;5050418;28;959;-57
2021/11/15 14:22:26;;;;;;;;;;;17.00;99.90;;;;;;5053349;28;847;-57
2021/11/15 14:24:53;;;;;;;;;;;17.00;99.90;;;;;;5065275;22;1880;-59
2021/11/15 14:27:20;;;;;;;;;;;17.00;99.90;;;;;;5033142;28;1669;-58
2021/11/15 14:29:46;;;;;;;;;;;17.00;99.90;;;;;;5018367;28;947;-58
2021/11/15 14:32:13;;;;;;;;;;;16.90;99.90;;;;;;5034874;28;1062;-58
2021/11/15 14:34:46;;;;;;;;;;;16.90;99.90;;;;;;5036464;28;1009;-57
2021/11/15 14:37:21;;;;;;;;;;;16.90;99.90;;;;;;5031536;28;975;-57
2021/11/15 14:39:48;;;;;;;;;;;16.90;99.90;;;;;;5036075;28;1041;-57
2021/11/15 14:42:14;;;;;;;;;;;16.90;99.90;;;;;;5036704;28;1196;-57
2021/11/15 14:44:42;;;;;;;;;;;16.90;99.90;;;;;;5035556;28;1910;-57
2021/11/15 14:47:10;;;;;;;;;;;16.90;99.90;;;;;;5036279;28;1112;-57